createdAt,value
2017-09-27T00:02:19.129Z,15.23
2017-09-27T00:04:45.449Z,15.21
2017-09-27T00:07:11.682Z,15.24
2017-09-27T00:09:37.896Z,15.14
2017-09-27T00:12:04.123Z,15.14
2017-09-27T00:14:30.357Z,15.20
2017-09-27T00:16:56.592Z,15.22
2017-09-27T00:19:23.150Z,15.10
2017-09-27T00:21:49.330Z,15.14
2017-09-27T00:24:15.574Z,15.12
2017-09-27T00:26:41.806Z,15.24
2017-09-27T00:29:08.042Z,15.24
2017-09-27T00:31:34.271Z,15.17
2017-09-27T00:34:00.484Z,15.13
2017-09-27T00:36:26.718Z,15.17
2017-09-27T00:38:52.945Z,15.17
2017-09-27T00:41:19.172Z,15.11
2017-09-27T00:43:45.412Z,15.19
2017-09-27T00:46:11.655Z,15.11
2017-09-27T00:48:37.872Z,15.20
2017-09-27T00:51:04.114Z,15.18
2017-09-27T00:53:30.340Z,15.20
2017-09-27T00:55:56.569Z,15.22
2017-09-27T00:58:22.804Z,15.20
2017-09-27T01:00:49.027Z,15.23
2017-09-27T01:03:15.254Z,15.27
2017-09-27T01:05:41.481Z,15.16
2017-09-27T01:08:07.698Z,15.10
2017-09-27T01:10:33.949Z,15.22
2017-09-27T01:13:00.166Z,15.17
2017-09-27T01:15:26.393Z,15.24
2017-09-27T01:17:52.633Z,15.27
2017-09-27T01:20:18.889Z,15.16
2017-09-27T01:22:45.106Z,15.16
2017-09-27T01:25:11.300Z,15.21
2017-09-27T01:27:37.536Z,15.27
2017-09-27T01:30:03.776Z,15.21
2017-09-27T01:32:29.993Z,15.15
2017-09-27T01:34:56.245Z,15.29
2017-09-27T01:37:22.469Z,15.31
2017-09-27T01:39:48.691Z,15.29
2017-09-27T01:42:14.946Z,15.16
2017-09-27T01:44:41.155Z,15.05
2017-09-27T01:47:07.386Z,15.01
2017-09-27T01:49:33.613Z,15.10
2017-09-27T01:51:59.835Z,15.14
2017-09-27T01:54:26.078Z,15.04
2017-09-27T01:56:52.300Z,15.09
2017-09-27T01:59:18.533Z,15.06
2017-09-27T02:01:44.769Z,15.01
2017-09-27T02:04:11.006Z,15.09
2017-09-27T02:06:37.235Z,15.17
2017-09-27T02:09:03.457Z,15.21
2017-09-27T02:11:29.679Z,15.28
2017-09-27T02:13:55.924Z,15.33
2017-09-27T02:16:22.131Z,15.35
2017-09-27T02:18:48.390Z,15.28
2017-09-27T02:21:14.552Z,15.28
2017-09-27T02:23:40.733Z,15.15
2017-09-27T02:26:06.961Z,15.16
2017-09-27T02:28:33.191Z,15.19
2017-09-27T02:30:59.410Z,15.11
2017-09-27T02:33:25.652Z,14.91
2017-09-27T02:35:51.868Z,14.93
2017-09-27T02:38:18.117Z,14.97
2017-09-27T02:40:44.341Z,14.98
2017-09-27T02:43:10.559Z,14.94
2017-09-27T02:45:36.806Z,14.89
2017-09-27T02:48:03.023Z,14.95
2017-09-27T02:50:29.242Z,14.94
2017-09-27T02:52:55.493Z,14.85
2017-09-27T02:55:21.729Z,14.93
2017-09-27T02:57:47.960Z,15.02
2017-09-27T03:00:14.190Z,15.06
2017-09-27T03:02:40.399Z,15.13
2017-09-27T03:05:06.642Z,15.11
2017-09-27T03:07:32.879Z,15.06
2017-09-27T03:09:59.089Z,15.01
2017-09-27T03:12:25.332Z,14.76
2017-09-27T03:14:51.553Z,14.79
2017-09-27T03:17:17.775Z,14.73
2017-09-27T03:19:44.021Z,14.71
2017-09-27T03:22:10.247Z,14.67
2017-09-27T03:24:36.477Z,14.60
2017-09-27T03:27:02.735Z,14.49
2017-09-27T03:29:28.946Z,14.49
2017-09-27T03:31:55.152Z,14.49
2017-09-27T03:34:21.392Z,14.45
2017-09-27T03:36:47.622Z,14.34
2017-09-27T03:39:13.863Z,14.42
2017-09-27T03:41:40.084Z,14.31
2017-09-27T03:44:06.308Z,14.23
2017-09-27T03:46:32.543Z,14.14
2017-09-27T03:48:58.782Z,14.07
2017-09-27T03:51:25.011Z,14.02
2017-09-27T03:53:51.246Z,14.00
2017-09-27T03:56:17.442Z,14.03
2017-09-27T03:58:43.705Z,13.99
2017-09-27T04:01:09.917Z,13.90
2017-09-27T04:03:36.135Z,13.87
2017-09-27T04:06:02.388Z,13.92
2017-09-27T04:08:28.596Z,13.83
2017-09-27T04:10:54.836Z,13.92
2017-09-27T04:13:21.082Z,13.87
2017-09-27T04:15:47.315Z,13.96
2017-09-27T04:18:13.954Z,13.96
2017-09-27T04:20:40.178Z,14.03
2017-09-27T04:23:06.336Z,14.12
2017-09-27T04:25:32.533Z,14.16
2017-09-27T04:27:58.754Z,14.19
2017-09-27T04:30:25.012Z,14.34
2017-09-27T04:32:51.211Z,14.45
2017-09-27T04:35:17.431Z,14.36
2017-09-27T04:37:43.670Z,14.28
2017-09-27T04:40:09.888Z,14.27
2017-09-27T04:42:36.144Z,14.33
2017-09-27T04:45:02.364Z,14.23
2017-09-27T04:47:28.601Z,14.19
2017-09-27T04:49:54.834Z,14.02
2017-09-27T04:52:21.058Z,13.94
2017-09-27T04:54:47.295Z,13.94
2017-09-27T04:57:13.505Z,14.00
2017-09-27T04:59:39.761Z,13.87
2017-09-27T05:02:05.985Z,13.81
2017-09-27T05:04:32.217Z,13.87
2017-09-27T05:06:58.432Z,13.84
2017-09-27T05:09:24.670Z,13.94
2017-09-27T05:11:50.885Z,13.89
2017-09-27T05:14:17.139Z,14.00
2017-09-27T05:16:43.356Z,13.94
2017-09-27T05:19:09.594Z,13.83
2017-09-27T05:21:35.827Z,13.82
2017-09-27T05:24:02.056Z,13.87
2017-09-27T05:26:28.270Z,13.80
2017-09-27T05:28:54.487Z,13.80
2017-09-27T05:31:20.732Z,13.78
2017-09-27T05:33:46.969Z,13.76
2017-09-27T05:36:13.170Z,13.79
2017-09-27T05:38:39.408Z,13.74
2017-09-27T05:41:05.660Z,13.66
2017-09-27T05:43:31.872Z,13.53
2017-09-27T05:45:58.117Z,13.43
2017-09-27T05:48:24.332Z,13.33
2017-09-27T05:50:50.545Z,13.28
2017-09-27T05:53:16.791Z,13.29
2017-09-27T05:55:43.029Z,13.22
2017-09-27T05:58:09.265Z,13.21
2017-09-27T06:00:35.491Z,13.16
2017-09-27T06:03:01.740Z,13.13
2017-09-27T06:05:27.940Z,13.16
2017-09-27T06:07:54.166Z,13.12
2017-09-27T06:10:20.419Z,13.18
2017-09-27T06:12:47.359Z,13.23
2017-09-27T06:15:13.574Z,13.33
2017-09-27T06:17:39.790Z,13.27
2017-09-27T06:20:06.037Z,13.29
2017-09-27T06:22:32.265Z,13.38
2017-09-27T06:24:58.524Z,13.49
2017-09-27T06:27:24.731Z,13.54
2017-09-27T06:29:50.976Z,13.62
2017-09-27T06:32:17.189Z,13.58
2017-09-27T06:34:43.402Z,13.61
2017-09-27T06:37:09.647Z,13.60
2017-09-27T06:39:35.956Z,13.55
2017-09-27T06:42:02.116Z,13.55
2017-09-27T06:44:28.342Z,13.56
2017-09-27T06:46:54.558Z,13.59
2017-09-27T06:49:20.805Z,13.50
2017-09-27T06:51:46.981Z,13.44
2017-09-27T06:54:13.265Z,13.42
2017-09-27T06:56:39.447Z,13.30
2017-09-27T06:59:05.714Z,13.19
2017-09-27T07:01:31.942Z,13.18
2017-09-27T07:03:58.146Z,13.14
2017-09-27T07:06:24.319Z,13.07
2017-09-27T07:08:50.577Z,13.01
2017-09-27T07:11:16.796Z,12.94
2017-09-27T07:13:43.008Z,12.82
2017-09-27T07:16:09.219Z,12.82
2017-09-27T07:18:35.529Z,12.77
2017-09-27T07:21:01.829Z,12.76
2017-09-27T07:23:28.066Z,12.83
2017-09-27T07:25:54.354Z,12.77
2017-09-27T07:28:20.626Z,12.63
2017-09-27T07:30:46.912Z,12.62
2017-09-27T07:33:13.149Z,12.59
2017-09-27T07:35:39.387Z,12.67
2017-09-27T07:38:05.583Z,12.71
2017-09-27T07:40:31.893Z,12.72
2017-09-27T07:42:58.074Z,12.70
2017-09-27T07:45:24.305Z,12.77
2017-09-27T07:47:50.521Z,12.85
2017-09-27T07:50:16.708Z,12.91
2017-09-27T07:52:42.900Z,12.87
2017-09-27T07:55:09.075Z,12.93
2017-09-27T07:57:35.264Z,12.98
2017-09-27T08:00:01.448Z,13.03
2017-09-27T08:02:27.674Z,13.08
2017-09-27T08:15:57.014Z,12.77
2017-09-27T08:18:23.244Z,12.78
2017-09-27T08:20:49.450Z,12.81
2017-09-27T08:23:15.644Z,12.87
2017-09-27T08:25:41.835Z,12.89
2017-09-27T08:28:08.006Z,12.92
2017-09-27T08:30:34.189Z,13.02
2017-09-27T08:33:00.373Z,13.15
2017-09-27T08:35:26.541Z,13.20
2017-09-27T08:37:52.731Z,13.27
2017-09-27T08:40:18.914Z,13.32
2017-09-27T08:42:45.103Z,13.28
2017-09-27T08:45:11.280Z,13.19
2017-09-27T08:47:37.463Z,13.16
2017-09-27T08:50:03.662Z,13.14
2017-09-27T08:52:29.839Z,13.18
2017-09-27T08:54:56.055Z,13.30
2017-09-27T08:57:22.254Z,13.33
2017-09-27T08:59:49.944Z,13.29
2017-09-27T09:02:16.145Z,13.31
2017-09-27T09:04:42.343Z,13.44
2017-09-27T09:07:08.502Z,13.52
2017-09-27T09:09:34.669Z,13.43
2017-09-27T09:12:00.837Z,13.49
2017-09-27T09:14:27.120Z,13.54
2017-09-27T09:16:53.337Z,13.57
2017-09-27T09:19:19.565Z,13.61
2017-09-27T09:21:45.772Z,13.74
2017-09-27T09:24:11.970Z,13.77
2017-09-27T09:26:38.269Z,13.80
2017-09-27T09:29:04.926Z,13.80
2017-09-27T09:31:31.203Z,13.80
2017-09-27T09:33:58.491Z,13.79
2017-09-27T09:36:24.678Z,13.68
2017-09-27T09:38:50.847Z,13.72
2017-09-27T09:41:17.010Z,13.74
2017-09-27T09:43:43.173Z,13.70
2017-09-27T09:46:09.362Z,13.71
2017-09-27T09:48:35.552Z,13.70
2017-09-27T09:51:01.785Z,13.73
2017-09-27T10:00:38.543Z,13.70
2017-09-27T10:03:04.711Z,13.87
2017-09-27T10:05:30.961Z,13.98
2017-09-27T10:07:57.174Z,14.02
2017-09-27T10:10:24.723Z,13.99
2017-09-27T10:12:51.004Z,13.97
2017-09-27T10:15:17.618Z,13.91
2017-09-27T10:17:43.979Z,13.80
2017-09-27T10:20:10.200Z,13.62
2017-09-27T10:22:36.411Z,13.50
2017-09-27T10:25:02.630Z,13.40
2017-09-27T10:27:28.910Z,13.42
2017-09-27T10:29:55.263Z,13.36
2017-09-27T10:32:21.537Z,13.35
2017-09-27T10:34:47.764Z,13.30
2017-09-27T10:37:13.993Z,13.26
2017-09-27T10:39:41.902Z,13.31
2017-09-27T10:42:08.128Z,13.32
2017-09-27T10:44:34.323Z,13.30
2017-09-27T10:47:00.571Z,13.30
2017-09-27T10:49:26.786Z,13.27
2017-09-27T10:51:53.168Z,13.24
2017-09-27T10:54:19.804Z,13.29
2017-09-27T10:56:46.950Z,13.19
2017-09-27T10:59:21.954Z,13.28
2017-09-27T11:01:48.230Z,13.24
2017-09-27T11:04:15.462Z,13.21
2017-09-27T11:06:41.670Z,13.21
2017-09-27T11:09:08.136Z,13.16
2017-09-27T11:11:34.470Z,13.14
2017-09-27T11:14:00.796Z,13.05
2017-09-27T11:16:27.093Z,12.98
2017-09-27T11:18:53.305Z,12.99
2017-09-27T11:21:19.569Z,13.02
2017-09-27T11:23:45.798Z,13.06
2017-09-27T11:26:12.049Z,13.04
2017-09-27T11:28:38.349Z,13.09
2017-09-27T11:31:05.341Z,13.13
2017-09-27T11:33:31.670Z,13.27
2017-09-27T11:35:57.990Z,13.32
2017-09-27T11:40:54.705Z,13.28
2017-09-27T11:43:20.977Z,13.34
2017-09-27T11:45:47.365Z,13.36
2017-09-27T11:48:15.664Z,13.40
2017-09-27T11:50:41.919Z,13.52
2017-09-27T11:53:08.296Z,13.51
2017-09-27T11:55:34.554Z,13.56
2017-09-27T11:58:00.805Z,13.61
2017-09-27T12:00:27.051Z,13.59
2017-09-27T12:02:53.398Z,13.58
2017-09-27T12:05:20.328Z,13.58
2017-09-27T12:07:46.716Z,13.58
2017-09-27T12:10:12.969Z,13.62
2017-09-27T12:12:39.150Z,13.67
2017-09-27T12:15:05.794Z,13.71
2017-09-27T12:17:32.099Z,13.65
2017-09-27T12:20:07.583Z,13.62
2017-09-27T12:22:34.181Z,13.69
2017-09-27T12:25:00.577Z,13.74
2017-09-27T12:27:26.885Z,13.65
2017-09-27T12:29:53.210Z,13.73
2017-09-27T12:32:20.779Z,13.77
2017-09-27T12:34:47.264Z,13.77
2017-09-27T12:37:13.506Z,13.86
2017-09-27T12:39:40.043Z,13.83
2017-09-27T12:42:06.444Z,13.91
2017-09-27T12:44:32.864Z,13.87
2017-09-27T12:46:59.480Z,13.83
2017-09-27T12:49:26.340Z,13.70
2017-09-27T12:51:52.665Z,13.68
2017-09-27T12:54:19.191Z,13.85
2017-09-27T12:56:45.576Z,13.94
2017-09-27T13:14:37.126Z,13.80
2017-09-27T13:17:03.445Z,13.86
2017-09-27T13:19:29.672Z,13.92
2017-09-27T13:21:55.951Z,13.97
2017-09-27T13:24:22.236Z,14.09
2017-09-27T13:26:49.054Z,14.10
2017-09-27T13:29:15.289Z,14.10
2017-09-27T13:31:41.561Z,14.10
2017-09-27T13:34:07.876Z,14.00
2017-09-27T13:36:34.099Z,13.98
2017-09-27T13:39:00.301Z,13.92
2017-09-27T13:41:26.528Z,13.94
2017-09-27T13:43:52.777Z,14.04
2017-09-27T13:46:18.975Z,14.00
2017-09-27T13:48:46.593Z,14.13
2017-09-27T13:51:20.606Z,14.05
2017-09-27T13:53:46.923Z,14.12
2017-09-27T14:04:38.677Z,14.19
2017-09-27T14:11:39.607Z,14.48
2017-09-27T14:16:53.192Z,14.47
2017-09-27T14:27:33.274Z,14.29
2017-09-27T15:00:48.051Z,14.05
2017-09-27T15:03:14.293Z,14.01
2017-09-27T15:05:40.637Z,13.96
2017-09-27T15:08:08.282Z,14.00
2017-09-27T15:10:34.503Z,14.02
2017-09-27T15:13:00.842Z,14.01
2017-09-27T15:15:27.151Z,13.98
2017-09-27T15:17:53.343Z,13.96
2017-09-27T15:20:19.604Z,13.94
2017-09-27T15:22:53.668Z,13.75
2017-09-27T15:25:20.013Z,13.65
2017-09-27T15:27:46.264Z,13.61
2017-09-27T15:30:12.511Z,13.64
2017-09-27T15:32:38.732Z,13.78
2017-09-27T15:35:04.959Z,13.86
2017-09-27T15:37:31.175Z,13.91
2017-09-27T15:39:57.403Z,13.95
2017-09-27T15:42:23.664Z,13.88
2017-09-27T15:44:49.883Z,14.10
2017-09-27T15:47:16.104Z,14.23
2017-09-27T15:49:42.368Z,14.21
2017-09-27T15:52:08.656Z,14.21
2017-09-27T15:54:34.977Z,14.19
2017-09-27T15:57:01.330Z,14.09
2017-09-27T15:59:27.642Z,14.09
2017-09-27T16:01:54.447Z,14.01
2017-09-27T16:04:20.788Z,13.90
2017-09-27T16:06:47.085Z,13.87
2017-09-27T16:09:13.318Z,13.77
2017-09-27T16:11:39.511Z,13.69
2017-09-27T16:14:05.751Z,13.63
2017-09-27T16:16:31.977Z,13.63
2017-09-27T16:18:58.200Z,13.64
2017-09-27T16:21:24.466Z,13.65
2017-09-27T16:23:50.688Z,13.58
2017-09-27T16:26:16.908Z,13.48
2017-09-27T16:28:43.147Z,13.41
2017-09-27T16:31:09.340Z,13.41
2017-09-27T16:33:35.583Z,13.40
2017-09-27T16:36:01.826Z,13.41
2017-09-27T16:38:28.031Z,13.40
2017-09-27T16:40:54.274Z,13.33
2017-09-27T16:43:20.501Z,13.22
2017-09-27T16:45:46.730Z,13.25
2017-09-27T16:48:12.948Z,13.26
2017-09-27T16:50:39.189Z,13.18
2017-09-27T16:53:05.405Z,13.08
2017-09-27T16:55:31.648Z,12.99
2017-09-27T16:57:57.880Z,13.28
2017-09-27T17:00:24.103Z,13.40
2017-09-27T17:02:50.342Z,13.39
2017-09-27T17:05:16.538Z,13.41
2017-09-27T17:07:42.783Z,13.41
2017-09-27T17:10:09.013Z,13.39
2017-09-27T17:12:35.251Z,13.42
2017-09-27T17:15:01.493Z,13.35
2017-09-27T17:17:27.705Z,13.39
2017-09-27T17:19:53.939Z,13.48
2017-09-27T17:22:20.194Z,13.55
2017-09-27T17:24:46.386Z,13.44
2017-09-27T17:27:12.627Z,13.42
2017-09-27T17:29:38.876Z,13.42
2017-09-27T17:32:05.100Z,13.39
2017-09-27T17:34:31.321Z,13.42
2017-09-27T17:36:57.540Z,13.40
2017-09-27T17:39:23.789Z,13.42
2017-09-27T17:41:50.012Z,13.41
2017-09-27T17:44:16.252Z,13.42
2017-09-27T17:46:42.469Z,13.42
2017-09-27T17:49:08.699Z,13.41
2017-09-27T17:51:34.931Z,13.49
2017-09-27T17:54:01.178Z,13.51
2017-09-27T17:56:27.432Z,13.48
2017-09-27T17:58:53.602Z,13.40
2017-09-27T18:01:19.855Z,13.36
2017-09-27T18:03:46.086Z,13.36
2017-09-27T18:06:12.315Z,13.37
2017-09-27T18:08:38.545Z,13.40
2017-09-27T18:11:04.808Z,13.26
2017-09-27T18:13:31.103Z,13.21
2017-09-27T18:15:57.373Z,13.18
2017-09-27T18:18:23.581Z,13.10
2017-09-27T18:20:49.807Z,13.08
2017-09-27T18:23:16.029Z,13.05
2017-09-27T18:25:42.324Z,13.08
2017-09-27T18:28:08.582Z,13.17
2017-09-27T18:30:34.806Z,13.14
2017-09-27T18:33:01.078Z,13.06
2017-09-27T18:35:27.267Z,13.22
2017-09-27T18:37:53.564Z,13.29
2017-09-27T18:40:19.836Z,13.38
2017-09-27T18:42:46.101Z,13.50
2017-09-27T18:45:12.309Z,13.51
2017-09-27T18:47:38.535Z,13.58
2017-09-27T18:50:04.745Z,13.61
2017-09-27T18:52:31.024Z,13.64
2017-09-27T18:54:57.234Z,13.52
2017-09-27T18:57:23.432Z,13.40
2017-09-27T18:59:49.695Z,13.15
2017-09-27T19:02:15.891Z,13.12
2017-09-27T19:04:42.143Z,13.10
2017-09-27T19:07:08.370Z,13.24
2017-09-27T19:09:34.599Z,13.32
2017-09-27T19:12:00.817Z,13.32
2017-09-27T19:14:27.064Z,13.34
2017-09-27T19:16:53.297Z,13.32
2017-09-27T19:19:19.505Z,13.23
2017-09-27T19:21:45.744Z,13.12
2017-09-27T19:24:11.973Z,13.16
2017-09-27T19:26:38.191Z,13.11
2017-09-27T19:29:04.431Z,13.19
2017-09-27T19:31:30.657Z,13.27
2017-09-27T19:33:56.882Z,13.33
2017-09-27T19:36:23.120Z,13.31
2017-09-27T19:38:49.346Z,13.24
2017-09-27T19:41:15.581Z,13.24
2017-09-27T19:43:41.809Z,13.23
2017-09-27T19:46:08.057Z,13.22
2017-09-27T19:48:34.261Z,13.21
2017-09-27T19:51:00.511Z,13.25
2017-09-27T19:53:26.727Z,13.10
2017-09-27T19:55:52.952Z,13.05
2017-09-27T19:58:19.190Z,13.02
2017-09-27T20:00:45.416Z,12.95
2017-09-27T20:03:11.649Z,12.86
2017-09-27T20:05:37.887Z,12.85
2017-09-27T20:08:04.099Z,12.91
2017-09-27T20:10:30.331Z,13.03
2017-09-27T20:12:56.584Z,13.06
2017-09-27T20:15:22.814Z,13.11
2017-09-27T20:17:49.034Z,13.11
2017-09-27T20:20:15.244Z,13.17
2017-09-27T20:22:41.489Z,13.12
2017-09-27T20:25:07.703Z,13.15
2017-09-27T20:27:33.955Z,13.21
2017-09-27T20:30:00.162Z,13.23
2017-09-27T20:32:26.571Z,13.24
2017-09-27T20:34:52.865Z,13.23
2017-09-27T20:37:19.191Z,13.21
2017-09-27T20:39:45.407Z,13.22
2017-09-27T20:42:11.754Z,13.21
2017-09-27T20:44:37.917Z,13.20
2017-09-27T20:47:04.235Z,13.18
2017-09-27T20:49:30.426Z,13.13
2017-09-27T20:51:56.663Z,13.13
2017-09-27T20:54:22.876Z,13.13
2017-09-27T20:56:49.116Z,13.13
2017-09-27T20:59:15.350Z,13.08
2017-09-27T21:01:41.603Z,13.04
2017-09-27T21:04:07.985Z,13.05
2017-09-27T21:06:34.244Z,13.04
2017-09-27T21:09:00.471Z,12.96
2017-09-27T21:11:26.637Z,12.93
2017-09-27T21:13:52.813Z,12.89
2017-09-27T21:16:19.051Z,12.84
2017-09-27T21:18:45.263Z,12.87
2017-09-27T21:21:11.513Z,12.82
2017-09-27T21:23:37.738Z,12.84
2017-09-27T21:26:03.958Z,12.93
2017-09-27T21:28:30.213Z,12.94
2017-09-27T21:30:56.409Z,12.99
2017-09-27T21:33:22.592Z,13.11
2017-09-27T21:35:48.777Z,13.07
2017-09-27T21:38:14.991Z,13.14
2017-09-27T21:40:41.264Z,13.15
2017-09-27T21:43:07.472Z,13.12
2017-09-27T21:45:33.646Z,13.13
2017-09-27T21:47:59.955Z,13.08
2017-09-27T21:50:26.152Z,13.06
2017-09-27T21:52:52.388Z,13.12
2017-09-27T21:55:18.628Z,13.08
2017-09-27T21:57:44.841Z,13.12
2017-09-27T22:00:11.080Z,13.11
2017-09-27T22:02:37.299Z,13.08
2017-09-27T22:05:03.528Z,13.14
2017-09-27T22:07:29.771Z,13.20
2017-09-27T22:09:56.025Z,13.20
2017-09-27T22:12:22.222Z,13.21
2017-09-27T22:14:48.456Z,13.16
2017-09-27T22:17:14.693Z,13.17
2017-09-27T22:19:40.911Z,13.11
2017-09-27T22:22:07.132Z,13.16
2017-09-27T22:24:33.368Z,13.16
2017-09-27T22:26:59.594Z,13.21
2017-09-27T22:29:25.818Z,13.21
2017-09-27T22:31:52.053Z,13.18
2017-09-27T22:34:18.291Z,13.21
2017-09-27T22:36:44.528Z,13.25
2017-09-27T22:39:10.750Z,13.27
2017-09-27T22:41:36.976Z,13.21
2017-09-27T22:44:03.205Z,13.18
2017-09-27T22:46:29.444Z,13.16
2017-09-27T22:48:55.617Z,13.21
2017-09-27T22:51:21.800Z,13.27
2017-09-27T22:53:48.028Z,13.28
2017-09-27T22:56:14.268Z,13.23
2017-09-27T22:58:40.498Z,13.27
2017-09-27T23:01:06.670Z,13.30
2017-09-27T23:03:32.946Z,13.32
2017-09-27T23:05:59.178Z,13.30
2017-09-27T23:08:25.408Z,13.35
2017-09-27T23:10:51.644Z,13.24
2017-09-27T23:13:17.859Z,13.21
2017-09-27T23:15:44.100Z,13.18
2017-09-27T23:18:10.334Z,13.16
2017-09-27T23:20:36.563Z,13.02
2017-09-27T23:23:02.789Z,12.96
2017-09-27T23:25:29.010Z,12.87
2017-09-27T23:27:55.237Z,12.85
2017-09-27T23:30:21.481Z,12.87
2017-09-27T23:32:47.695Z,12.90
2017-09-27T23:35:13.932Z,12.90
2017-09-27T23:37:40.180Z,12.92
2017-09-27T23:40:06.391Z,12.95
2017-09-27T23:42:32.623Z,13.00
2017-09-27T23:44:58.856Z,13.04
2017-09-27T23:47:25.075Z,13.04
2017-09-27T23:49:51.291Z,12.97
2017-09-27T23:52:17.537Z,12.69
2017-09-27T23:54:43.758Z,12.67
2017-09-27T23:57:10.000Z,12.69
2017-09-27T23:59:36.207Z,12.78
